Time;durP1;ratioP1;P1;durP2;ratioP2;P2;SDS_P1;SDS_P2;PMS_P1;PMS_P2;Temp;Humidity;BMP_temperature;BMP_pressure;BME280_temperature;BME280_humidity;BME280_pressure;Samples;Min_cycle;Max_cycle;Signal;HPM_P1;HPM_P2
2021/11/19 00:00:59;;;;;;;24.25;12.88;;;4.60;99.90;;;;;;5077228;28;20435;-55
2021/11/19 00:03:26;;;;;;;19.95;12.63;;;4.60;99.90;;;;;;5080265;28;20929;-55
2021/11/19 00:05:52;;;;;;;21.73;12.40;;;4.70;99.90;;;;;;5070906;28;20897;-55
2021/11/19 00:08:25;;;;;;;27.55;12.70;;;4.60;99.90;;;;;;5089343;28;20466;-55
2021/11/19 00:10:51;;;;;;;22.60;12.18;;;4.60;99.90;;;;;;5088209;28;20390;-55
2021/11/19 00:13:17;;;;;;;20.85;11.70;;;4.50;99.90;;;;;;5089528;28;20409;-55
2021/11/19 00:15:43;;;;;;;23.87;12.10;;;4.40;99.90;;;;;;5088100;28;20868;-55
2021/11/19 00:18:08;;;;;;;41.57;12.43;;;4.40;99.90;;;;;;5088813;28;20382;-55
2021/11/19 00:20:34;;;;;;;21.75;12.25;;;4.40;99.90;;;;;;5088859;28;20378;-55
2021/11/19 00:23:02;;;;;;;20.50;12.43;;;4.30;99.90;;;;;;5088214;28;20883;-55
2021/11/19 00:25:29;;;;;;;21.05;12.00;;;4.40;99.90;;;;;;5089715;28;20383;-56
2021/11/19 00:27:56;;;;;;;21.85;12.50;;;4.40;99.90;;;;;;5094644;28;20382;-55
2021/11/19 00:30:23;;;;;;;24.80;12.60;;;4.30;99.90;;;;;;5094554;28;20882;-55
2021/11/19 00:32:49;;;;;;;23.60;11.88;;;4.30;99.90;;;;;;5094620;28;20386;-55
2021/11/19 00:35:16;;;;;;;21.15;11.95;;;4.30;99.90;;;;;;5095872;28;20816;-55
2021/11/19 00:37:44;;;;;;;22.90;12.00;;;4.20;99.90;;;;;;5095073;28;20827;-55
2021/11/19 00:40:15;;;;;;;21.27;11.35;;;4.20;99.90;;;;;;5095047;28;20431;-55
2021/11/19 00:42:40;;;;;;;20.40;11.40;;;4.20;99.90;;;;;;5095106;28;20450;-56
2021/11/19 00:45:07;;;;;;;22.10;12.80;;;4.20;99.90;;;;;;5095342;28;20468;-55
2021/11/19 00:47:32;;;;;;;19.77;11.52;;;4.20;99.90;;;;;;5095574;28;20887;-55
2021/11/19 00:50:00;;;;;;;20.05;11.55;;;4.20;99.90;;;;;;5094680;28;20370;-55
2021/11/19 00:52:26;;;;;;;25.00;12.90;;;4.50;99.90;;;;;;5077332;28;20398;-55
2021/11/19 00:54:53;;;;;;;22.83;12.52;;;3.90;99.90;;;;;;5094835;28;20724;-55
2021/11/19 00:57:20;;;;;;;25.38;12.70;;;3.90;99.90;;;;;;5095969;28;20468;-55
2021/11/19 00:59:47;;;;;;;24.65;12.13;;;3.90;99.90;;;;;;5094596;28;20434;-55
2021/11/19 01:02:17;;;;;;;24.98;11.85;;;4.00;99.90;;;;;;5095277;28;20397;-55
2021/11/19 01:04:44;;;;;;;24.50;12.88;;;4.10;99.90;;;;;;5094878;28;20388;-55
2021/11/19 01:07:11;;;;;;;24.35;13.32;;;5.40;99.90;;;;;;5095638;28;20384;-55
2021/11/19 01:09:42;;;;;;;26.88;13.27;;;3.90;99.90;;;;;;5060458;28;20473;-55
2021/11/19 01:12:10;;;;;;;23.85;12.27;;;3.80;99.90;;;;;;5076883;28;20416;-55
2021/11/19 01:14:38;;;;;;;23.33;11.32;;;3.90;99.90;;;;;;5095561;28;20527;-55
2021/11/19 01:17:15;;;;;;;20.92;11.80;;;3.80;99.90;;;;;;5094683;28;20912;-55
2021/11/19 01:19:50;;;;;;;21.90;12.10;;;3.80;99.90;;;;;;5094632;28;20388;-55
2021/11/19 01:22:26;;;;;;;22.40;12.05;;;3.80;99.90;;;;;;5095238;28;20401;-55
2021/11/19 01:24:52;;;;;;;20.10;11.50;;;3.80;99.90;;;;;;5076508;28;20398;-55
2021/11/19 01:27:19;;;;;;;23.17;12.27;;;4.80;99.90;;;;;;5095108;28;20456;-55
2021/11/19 01:29:47;;;;;;;20.30;11.20;;;3.90;99.90;;;;;;5094629;28;20473;-55
2021/11/19 01:32:18;;;;;;;19.98;11.10;;;4.00;99.90;;;;;;5077239;28;20393;-55
2021/11/19 01:34:43;;;;;;;18.30;11.20;;;3.90;99.90;;;;;;5094374;28;20374;-55
2021/11/19 01:37:11;;;;;;;18.58;10.07;;;3.90;99.90;;;;;;5094012;28;20460;-55
2021/11/19 01:39:39;;;;;;;21.90;11.25;;;3.80;99.90;;;;;;5091423;28;20411;-55
2021/11/19 01:42:12;;;;;;;23.38;11.07;;;3.80;99.90;;;;;;5091447;28;20471;-55
2021/11/19 01:44:54;;;;;;;18.00;10.50;;;3.90;99.90;;;;;;5092058;28;20382;-55
2021/11/19 01:47:21;;;;;;;20.48;10.63;;;3.90;99.90;;;;;;5091230;28;20396;-55
2021/11/19 01:49:47;;;;;;;22.97;11.50;;;5.70;99.90;;;;;;5090776;28;20472;-55
2021/11/19 01:52:18;;;;;;;19.97;10.57;;;3.90;99.90;;;;;;5073568;28;20398;-55
2021/11/19 01:54:56;;;;;;;18.92;10.23;;;3.90;99.90;;;;;;5091109;28;20379;-56
2021/11/19 01:57:42;;;;;;;20.20;11.07;;;4.00;99.90;;;;;;5091419;28;20430;-55
2021/11/19 02:00:17;;;;;;;20.13;10.90;;;4.00;99.90;;;;;;5091216;28;20412;-55
2021/11/19 02:02:46;;;;;;;20.85;11.20;;;4.00;99.90;;;;;;5091116;28;20459;-55
2021/11/19 02:05:19;;;;;;;20.45;10.50;;;4.20;99.90;;;;;;5091488;28;20462;-55
2021/11/19 02:07:48;;;;;;;18.10;10.40;;;4.80;99.90;;;;;;5091093;28;20374;-55
2021/11/19 02:10:19;;;;;;;18.80;10.85;;;4.00;99.90;;;;;;5091735;28;20433;-55
2021/11/19 02:13:18;;;;;;;22.02;11.50;;;4.60;99.90;;;;;;5072716;28;20904;-55
2021/11/19 02:15:51;;;;;;;21.85;11.57;;;4.00;99.90;;;;;;5070784;28;20375;-56
2021/11/19 02:18:32;;;;;;;21.92;11.45;;;3.90;99.90;;;;;;5069738;28;20394;-55
2021/11/19 02:21:05;;;;;;;21.20;11.33;;;4.00;99.90;;;;;;5066922;28;20425;-55
2021/11/19 02:23:37;;;;;;;23.80;12.38;;;4.10;99.90;;;;;;5070518;28;20422;-55
2021/11/19 02:26:10;;;;;;;25.50;13.50;;;4.10;99.90;;;;;;5052319;28;20418;-55
2021/11/19 02:28:39;;;;;;;19.33;11.40;;;4.10;99.90;;;;;;5070966;28;20375;-55
2021/11/19 02:31:16;;;;;;;20.40;10.77;;;4.10;99.90;;;;;;5069600;28;20585;-55
2021/11/19 02:33:44;;;;;;;17.75;10.15;;;4.10;99.90;;;;;;5070969;28;20399;-55
2021/11/19 02:36:19;;;;;;;20.83;11.43;;;4.00;99.90;;;;;;5070064;28;20372;-55
2021/11/19 02:38:53;;;;;;;19.42;11.02;;;4.00;99.90;;;;;;5070471;28;20384;-55
2021/11/19 02:41:22;;;;;;;21.40;11.07;;;3.80;99.90;;;;;;5070890;28;20445;-55
2021/11/19 02:43:57;;;;;;;22.53;11.17;;;3.80;99.90;;;;;;5069635;28;20412;-56
2021/11/19 02:46:33;;;;;;;23.25;11.75;;;3.80;99.90;;;;;;5070146;28;20423;-55
2021/11/19 02:48:58;;;;;;;17.90;10.23;;;3.80;99.90;;;;;;5069615;28;20413;-55
2021/11/19 02:51:26;;;;;;;20.23;10.70;;;3.80;99.90;;;;;;5070391;28;20371;-56
2021/11/19 02:53:52;;;;;;;19.00;10.82;;;3.80;99.90;;;;;;5051588;28;20399;-60
2021/11/19 02:56:20;;;;;;;19.00;11.00;;;3.70;99.90;;;;;;5070338;28;20384;-55
2021/11/19 02:58:56;;;;;;;24.48;12.20;;;3.70;99.90;;;;;;5069948;28;20861;-55
2021/11/19 03:01:40;;;;;;;22.40;11.50;;;3.70;99.90;;;;;;5069960;28;20376;-55
2021/11/19 03:04:05;;;;;;;23.35;11.50;;;3.60;99.90;;;;;;5069085;28;20466;-55
2021/11/19 03:06:34;;;;;;;20.50;10.80;;;4.70;99.90;;;;;;5052110;28;20799;-55
2021/11/19 03:09:00;;;;;;;23.35;10.68;;;3.70;99.90;;;;;;5068856;28;20383;-55
2021/11/19 03:11:26;;;;;;;18.88;10.40;;;3.80;99.90;;;;;;5054675;28;20408;-55
2021/11/19 03:13:51;;;;;;;18.88;10.40;;;3.90;99.90;;;;;;5069263;28;20384;-55
2021/11/19 03:16:18;;;;;;;19.50;10.83;;;5.60;99.90;;;;;;5069893;28;20730;-55
2021/11/19 03:18:44;;;;;;;24.17;12.07;;;3.90;99.90;;;;;;5069845;28;20406;-55
2021/11/19 03:21:15;;;;;;;23.25;12.05;;;4.20;99.90;;;;;;5069052;28;20378;-55
2021/11/19 03:23:42;;;;;;;18.10;10.60;;;4.40;99.90;;;;;;5069762;28;20399;-55
2021/11/19 03:26:08;;;;;;;20.00;10.80;;;4.40;99.90;;;;;;5069004;28;20553;-55
2021/11/19 03:28:35;;;;;;;18.70;10.95;;;4.60;99.90;;;;;;5069231;28;20376;-55
2021/11/19 03:31:04;;;;;;;18.23;9.50;;;4.80;99.90;;;;;;5068731;28;20446;-55
2021/11/19 03:33:32;;;;;;;16.85;9.80;;;4.80;99.90;;;;;;5069106;28;20474;-55
2021/11/19 03:35:58;;;;;;;20.45;9.98;;;4.80;99.90;;;;;;5068822;28;20719;-55
2021/11/19 03:38:28;;;;;;;16.63;9.73;;;4.80;99.90;;;;;;5069486;28;20426;-55
2021/11/19 03:40:56;;;;;;;17.77;9.40;;;4.80;99.90;;;;;;5068941;28;20457;-55
2021/11/19 03:43:29;;;;;;;18.52;10.00;;;4.60;99.90;;;;;;5068047;28;20420;-55
2021/11/19 03:45:59;;;;;;;15.63;9.38;;;4.40;99.90;;;;;;5068258;28;20738;-55
2021/11/19 03:48:27;;;;;;;18.88;9.30;;;4.50;99.90;;;;;;5069428;28;20455;-55
2021/11/19 03:50:59;;;;;;;18.35;9.30;;;4.70;99.90;;;;;;5068120;28;20819;-56
2021/11/19 03:53:27;;;;;;;16.38;9.00;;;4.90;99.90;;;;;;5069490;28;20395;-55
2021/11/19 03:55:54;;;;;;;20.63;10.20;;;5.10;99.90;;;;;;5068837;28;20471;-56
2021/11/19 03:58:24;;;;;;;20.92;10.50;;;5.10;99.90;;;;;;5069373;28;20866;-55
2021/11/19 04:00:58;;;;;;;18.47;10.10;;;5.00;99.90;;;;;;5068114;28;20396;-56
2021/11/19 04:03:24;;;;;;;20.05;10.57;;;5.40;99.90;;;;;;5068654;28;20753;-55
2021/11/19 04:05:51;;;;;;;21.02;10.90;;;5.20;99.90;;;;;;5068486;28;20383;-53
2021/11/19 04:08:17;;;;;;;19.27;9.70;;;5.30;99.90;;;;;;5066974;28;20389;-55
2021/11/19 04:10:43;;;;;;;19.53;10.60;;;5.30;99.90;;;;;;5068740;28;20482;-55
2021/11/19 04:13:10;;;;;;;18.48;9.75;;;5.10;99.90;;;;;;5068435;28;20396;-55
2021/11/19 04:15:40;;;;;;;18.85;9.60;;;5.10;99.90;;;;;;5069105;28;20426;-55
2021/11/19 04:18:06;;;;;;;18.90;9.45;;;5.20;99.90;;;;;;5067993;28;20469;-55
2021/11/19 04:20:32;;;;;;;18.27;10.27;;;5.30;99.90;;;;;;5068648;28;20380;-55
2021/11/19 04:22:58;;;;;;;16.35;9.38;;;5.40;99.90;;;;;;5050083;28;20749;-56
2021/11/19 04:25:25;;;;;;;21.40;10.27;;;5.40;99.90;;;;;;5050868;28;20391;-54
2021/11/19 04:27:52;;;;;;;20.92;11.00;;;5.30;99.90;;;;;;5068763;28;20460;-54
2021/11/19 04:30:27;;;;;;;21.00;10.00;;;5.40;99.90;;;;;;5057712;28;20393;-55
2021/11/19 04:32:53;;;;;;;19.45;9.80;;;5.30;99.90;;;;;;5048583;28;20739;-55
2021/11/19 04:35:20;;;;;;;18.85;9.82;;;5.80;99.90;;;;;;5048593;28;20380;-54
2021/11/19 04:37:47;;;;;;;21.25;10.13;;;5.50;99.90;;;;;;5048610;28;20396;-54
2021/11/19 04:40:15;;;;;;;19.38;10.90;;;5.30;99.90;;;;;;5047496;28;20397;-54
2021/11/19 04:42:41;;;;;;;19.00;10.57;;;5.40;99.90;;;;;;5048250;28;20501;-54
2021/11/19 04:45:09;;;;;;;20.90;10.57;;;5.30;99.90;;;;;;5047913;28;20473;-54
2021/11/19 04:47:35;;;;;;;18.20;10.00;;;5.20;99.90;;;;;;5048530;28;20396;-55
2021/11/19 04:50:01;;;;;;;17.65;10.13;;;5.20;99.90;;;;;;5047301;28;20394;-55
2021/11/19 04:52:27;;;;;;;19.73;10.75;;;5.30;99.90;;;;;;5048367;28;20389;-54
2021/11/19 04:54:52;;;;;;;19.25;9.70;;;5.40;99.90;;;;;;5047918;28;20408;-55
2021/11/19 04:57:18;;;;;;;18.60;9.20;;;5.40;99.90;;;;;;5055104;28;20384;-55
2021/11/19 04:59:44;;;;;;;18.60;9.48;;;5.40;99.90;;;;;;5058314;28;20735;-54
2021/11/19 05:02:14;;;;;;;19.27;10.23;;;5.50;99.90;;;;;;5055605;28;20409;-55
2021/11/19 05:04:41;;;;;;;17.70;10.10;;;5.50;99.90;;;;;;5057357;28;20768;-54
2021/11/19 05:07:07;;;;;;;19.38;10.85;;;5.70;99.90;;;;;;5058017;28;20388;-55
2021/11/19 05:09:34;;;;;;;25.20;10.77;;;5.50;99.90;;;;;;5056195;28;20379;-54
2021/11/19 05:12:10;;;;;;;21.83;11.75;;;5.50;99.90;;;;;;5070964;28;20410;-55
2021/11/19 05:14:36;;;;;;;24.02;12.35;;;5.70;99.90;;;;;;5091800;28;20455;-55
2021/11/19 05:17:04;;;;;;;21.20;11.07;;;5.90;99.90;;;;;;5091387;28;20454;-55
2021/11/19 05:19:30;;;;;;;26.77;11.30;;;6.00;99.90;;;;;;5091832;28;20465;-54
2021/11/19 05:21:57;;;;;;;23.50;11.60;;;5.90;99.90;;;;;;5089221;28;20391;-55
2021/11/19 05:24:23;;;;;;;24.47;12.47;;;6.10;99.90;;;;;;5091890;28;20386;-54
2021/11/19 05:26:49;;;;;;;22.23;12.20;;;6.10;99.90;;;;;;5081900;28;20476;-55
2021/11/19 05:29:17;;;;;;;24.13;12.43;;;6.00;99.90;;;;;;5086384;28;20462;-54
2021/11/19 05:31:44;;;;;;;21.17;11.63;;;6.10;99.90;;;;;;5091696;28;20726;-54
2021/11/19 05:34:11;;;;;;;26.95;12.40;;;6.10;99.90;;;;;;5090885;28;20405;-54
2021/11/19 05:36:37;;;;;;;28.75;12.52;;;6.20;99.90;;;;;;5090880;28;20394;-54
2021/11/19 05:39:04;;;;;;;25.10;12.30;;;6.10;99.90;;;;;;5079470;28;20448;-54
2021/11/19 05:41:30;;;;;;;25.25;12.98;;;6.10;99.90;;;;;;5086893;28;20398;-54
2021/11/19 05:43:57;;;;;;;44.60;12.63;;;6.20;99.90;;;;;;5081895;28;20516;-55
2021/11/19 05:46:25;;;;;;;27.63;13.32;;;6.30;99.90;;;;;;5090993;28;20393;-54
2021/11/19 05:48:53;;;;;;;24.77;11.95;;;6.30;99.90;;;;;;5091036;28;20400;-54
2021/11/19 05:51:21;;;;;;;26.20;13.02;;;6.30;99.90;;;;;;5072483;28;20443;-54
2021/11/19 05:53:48;;;;;;;30.03;14.57;;;6.40;99.90;;;;;;5091345;28;20981;-54
2021/11/19 05:56:15;;;;;;;30.38;12.32;;;6.40;99.90;;;;;;5090484;28;20465;-54
2021/11/19 05:58:41;;;;;;;26.90;12.00;;;6.40;99.90;;;;;;5090357;28;20378;-54
2021/11/19 06:01:12;;;;;;;23.63;12.60;;;6.50;99.90;;;;;;5090076;28;20486;-54
2021/11/19 06:03:39;;;;;;;25.17;12.45;;;6.30;99.90;;;;;;5091393;28;20394;-54
2021/11/19 06:06:09;;;;;;;27.45;12.02;;;6.30;99.90;;;;;;5089475;28;20386;-55
2021/11/19 06:08:37;;;;;;;21.80;11.53;;;6.20;99.90;;;;;;5091122;28;20416;-54
2021/11/19 06:11:07;;;;;;;22.05;11.13;;;6.10;99.90;;;;;;5087228;28;20525;-54
2021/11/19 06:13:36;;;;;;;20.88;11.40;;;6.00;99.90;;;;;;5051133;28;20463;-54
2021/11/19 06:16:07;;;;;;;22.63;13.55;;;6.00;99.90;;;;;;5052324;28;20461;-54
2021/11/19 06:18:38;;;;;;;21.13;12.00;;;6.10;99.90;;;;;;5070765;28;20429;-54
2021/11/19 06:21:07;;;;;;;22.42;12.80;;;6.10;99.90;;;;;;5069875;28;20376;-54
2021/11/19 06:23:38;;;;;;;21.50;12.38;;;6.00;99.90;;;;;;5069917;28;21165;-54
2021/11/19 06:26:07;;;;;;;21.63;13.57;;;5.80;99.90;;;;;;5069935;28;20434;-54
2021/11/19 06:28:45;;;;;;;19.85;11.82;;;5.80;99.90;;;;;;5070199;28;20792;-54
2021/11/19 06:31:13;;;;;;;19.55;11.10;;;5.60;99.90;;;;;;5064081;28;20383;-54
2021/11/19 06:33:39;;;;;;;20.70;11.50;;;5.50;99.90;;;;;;5067258;28;20403;-54
2021/11/19 06:36:06;;;;;;;24.50;13.65;;;5.40;99.90;;;;;;5055903;28;20380;-54
2021/11/19 06:38:32;;;;;;;30.15;15.23;;;5.40;99.90;;;;;;5070545;28;20372;-55
2021/11/19 06:40:58;;;;;;;20.55;11.80;;;5.50;99.90;;;;;;5069695;28;20871;-55
2021/11/19 06:43:24;;;;;;;29.23;17.37;;;5.60;99.90;;;;;;5069192;28;20416;-54
2021/11/19 06:45:50;;;;;;;24.65;14.10;;;5.50;99.90;;;;;;5070043;28;20442;-54
2021/11/19 06:48:16;;;;;;;20.48;12.38;;;5.60;99.90;;;;;;5069375;28;20380;-54
2021/11/19 06:50:44;;;;;;;20.55;12.07;;;5.60;99.90;;;;;;5070131;28;20502;-54
2021/11/19 06:53:11;;;;;;;19.88;11.00;;;5.60;99.90;;;;;;5069365;28;20436;-54
2021/11/19 06:55:37;;;;;;;18.60;11.27;;;5.70;99.90;;;;;;5069427;28;20384;-55
2021/11/19 06:58:04;;;;;;;18.80;10.40;;;5.80;99.90;;;;;;5046879;28;20414;-55
2021/11/19 07:00:34;;;;;;;19.35;11.50;;;5.70;99.90;;;;;;5069971;28;20384;-54
2021/11/19 07:03:00;;;;;;;23.95;11.88;;;5.70;99.90;;;;;;5051826;28;20415;-54
2021/11/19 07:05:27;;;;;;;25.03;13.27;;;5.80;99.90;;;;;;5060523;28;20413;-54
2021/11/19 07:07:53;;;;;;;23.23;12.63;;;5.80;99.90;;;;;;5069868;28;20391;-54
2021/11/19 07:10:22;;;;;;;21.88;11.30;;;5.80;99.90;;;;;;5066337;28;20404;-54
2021/11/19 07:12:47;;;;;;;19.65;11.20;;;5.80;99.90;;;;;;5066862;28;20411;-54
2021/11/19 07:15:16;;;;;;;21.05;11.35;;;5.90;99.90;;;;;;5069085;28;20502;-54
2021/11/19 07:17:43;;;;;;;19.48;11.13;;;7.20;99.90;;;;;;5069228;28;20833;-54
2021/11/19 07:20:11;;;;;;;22.27;11.80;;;5.90;99.90;;;;;;5067937;28;20875;-55
2021/11/19 07:22:38;;;;;;;22.67;11.60;;;5.90;99.90;;;;;;5077730;28;20417;-54
2021/11/19 07:25:06;;;;;;;22.20;11.65;;;5.90;99.90;;;;;;5071844;28;20562;-54
2021/11/19 07:27:31;;;;;;;17.60;10.40;;;5.90;99.90;;;;;;5070795;28;20380;-54
2021/11/19 07:29:57;;;;;;;17.60;11.13;;;5.80;99.90;;;;;;5070574;28;20382;-54
2021/11/19 07:32:22;;;;;;;23.90;11.97;;;6.10;99.90;;;;;;5077620;28;20393;-54
2021/11/19 07:34:48;;;;;;;24.60;11.88;;;5.90;99.90;;;;;;5083716;28;20383;-54
2021/11/19 07:37:14;;;;;;;18.33;10.83;;;5.50;99.90;;;;;;5086878;28;20382;-54
2021/11/19 07:39:39;;;;;;;19.80;11.80;;;5.50;99.90;;;;;;5082424;28;21703;-54
2021/11/19 07:42:05;;;;;;;21.00;11.68;;;5.60;99.90;;;;;;5073769;28;20711;-54
2021/11/19 07:44:31;;;;;;;20.33;11.30;;;5.40;99.90;;;;;;5081414;28;20395;-55
2021/11/19 07:46:57;;;;;;;21.48;11.18;;;5.40;99.90;;;;;;5086946;28;20574;-55
2021/11/19 07:49:23;;;;;;;19.80;11.05;;;5.30;99.90;;;;;;5083952;28;20474;-54
2021/11/19 07:51:51;;;;;;;23.60;11.82;;;5.30;99.90;;;;;;5086085;28;20426;-54
2021/11/19 07:54:17;;;;;;;19.70;11.00;;;5.30;99.90;;;;;;5081511;28;20484;-54
2021/11/19 07:56:46;;;;;;;17.75;10.18;;;5.60;99.90;;;;;;5088471;28;20470;-54
2021/11/19 07:59:27;;;;;;;18.02;10.70;;;5.50;99.90;;;;;;5078083;28;20384;-54
2021/11/19 08:01:57;;;;;;;19.25;10.70;;;5.30;99.90;;;;;;5067833;28;20800;-54
2021/11/19 08:04:22;;;;;;;18.80;11.30;;;5.40;99.90;;;;;;5049438;28;20442;-55
2021/11/19 08:06:48;;;;;;;19.70;10.40;;;5.60;99.90;;;;;;5085102;28;20795;-54
2021/11/19 08:09:15;;;;;;;17.30;10.40;;;5.70;99.90;;;;;;5082281;28;20863;-54
2021/11/19 08:11:41;;;;;;;21.27;11.60;;;5.70;99.90;;;;;;5081124;28;20434;-55
2021/11/19 08:14:07;;;;;;;18.33;10.82;;;5.80;99.90;;;;;;5077688;28;20395;-55
2021/11/19 08:16:43;;;;;;;19.25;10.57;;;5.80;99.90;;;;;;5086900;28;20378;-54
2021/11/19 08:19:20;;;;;;;23.60;10.90;;;6.00;99.90;;;;;;5082876;28;20463;-55
2021/11/19 08:21:46;;;;;;;18.30;10.40;;;6.20;99.90;;;;;;5086468;28;20534;-54
2021/11/19 08:24:11;;;;;;;21.93;11.30;;;6.20;99.90;;;;;;5085349;28;20433;-55
2021/11/19 08:26:42;;;;;;;19.85;11.15;;;6.30;99.90;;;;;;5085477;28;20871;-55
2021/11/19 08:29:12;;;;;;;20.35;11.05;;;6.40;99.90;;;;;;5073968;28;20873;-55
2021/11/19 08:31:38;;;;;;;17.30;10.40;;;6.50;99.90;;;;;;5077524;28;20468;-55
2021/11/19 08:34:04;;;;;;;19.55;10.95;;;6.60;99.90;;;;;;5078105;28;20470;-55
2021/11/19 08:36:31;;;;;;;18.17;9.90;;;6.60;99.90;;;;;;5076865;28;20818;-55
2021/11/19 08:38:58;;;;;;;17.58;10.02;;;6.80;99.90;;;;;;5074751;28;20390;-55
2021/11/19 08:41:26;;;;;;;17.77;10.90;;;6.90;99.90;;;;;;5078684;28;20459;-55
2021/11/19 08:43:54;;;;;;;18.98;10.75;;;7.20;99.90;;;;;;5077191;28;20541;-55
2021/11/19 08:46:28;;;;;;;22.23;11.38;;;7.30;99.90;;;;;;5076690;28;20398;-54
2021/11/19 08:48:54;;;;;;;23.13;12.90;;;7.10;99.90;;;;;;5081065;28;20461;-55
2021/11/19 08:51:23;;;;;;;21.93;12.40;;;7.00;99.90;;;;;;5080524;28;20459;-55
2021/11/19 08:53:51;;;;;;;22.05;12.63;;;7.00;99.90;;;;;;5081983;28;20390;-54
2021/11/19 08:56:18;;;;;;;20.60;11.13;;;7.10;99.90;;;;;;5082311;28;20437;-54
2021/11/19 08:58:45;;;;;;;21.05;11.65;;;7.10;99.90;;;;;;5079788;28;20449;-54
2021/11/19 09:01:13;;;;;;;19.88;11.70;;;7.20;99.90;;;;;;5081193;28;20458;-55
2021/11/19 09:03:40;;;;;;;23.55;11.60;;;7.50;99.90;;;;;;5080620;28;20425;-55
2021/11/19 09:06:09;;;;;;;18.30;11.00;;;7.60;99.90;;;;;;5078621;28;20388;-55
2021/11/19 09:08:36;;;;;;;19.77;10.98;;;7.70;99.90;;;;;;5069703;28;20745;-54
2021/11/19 09:11:04;;;;;;;19.90;11.90;;;7.90;99.90;;;;;;5073956;28;20449;-55
2021/11/19 09:13:31;;;;;;;24.70;11.50;;;8.00;99.90;;;;;;5073623;28;20480;-55
2021/11/19 09:16:01;;;;;;;20.45;11.43;;;8.20;99.90;;;;;;5080554;28;20390;-55
2021/11/19 09:18:42;;;;;;;23.38;10.80;;;8.30;99.90;;;;;;5084269;28;20381;-54
2021/11/19 09:21:16;;;;;;;20.38;11.18;;;8.40;99.90;;;;;;5072965;28;20390;-55
2021/11/19 09:24:09;;;;;;;20.95;11.40;;;8.50;99.90;;;;;;5061690;28;20406;-54
2021/11/19 09:26:42;;;;;;;18.58;10.35;;;8.50;99.90;;;;;;5052406;28;20398;-55
2021/11/19 09:29:32;;;;;;;23.02;11.38;;;8.30;99.90;;;;;;5071071;28;20384;-55
2021/11/19 09:31:58;;;;;;;21.33;10.80;;;8.10;99.90;;;;;;5077242;28;20404;-54
2021/11/19 09:34:25;;;;;;;22.63;11.85;;;7.90;99.90;;;;;;5079513;28;20433;-54
2021/11/19 09:36:51;;;;;;;23.52;11.85;;;7.70;99.90;;;;;;5063355;28;20550;-55
2021/11/19 09:39:22;;;;;;;25.00;11.45;;;7.80;99.90;;;;;;5081988;28;20399;-55
2021/11/19 09:42:01;;;;;;;24.30;10.02;;;7.70;99.90;;;;;;5059476;28;20750;-55
2021/11/19 09:44:42;;;;;;;25.53;10.40;;;7.60;99.90;;;;;;5072196;28;20489;-55
2021/11/19 09:47:23;;;;;;;23.52;9.68;;;7.70;99.90;;;;;;5070995;28;20458;-55
2021/11/19 09:49:54;;;;;;;25.67;11.18;;;7.50;99.90;;;;;;5082226;28;20393;-55
2021/11/19 09:53:03;;;;;;;23.50;10.73;;;7.40;99.90;;;;;;5086420;28;20447;-55
2021/11/19 09:55:41;;;;;;;27.25;10.85;;;7.60;99.90;;;;;;5021645;28;20467;-55
2021/11/19 09:59:05;;;;;;;25.05;11.10;;;7.50;99.90;;;;;;5076019;28;20949;-55
2021/11/19 10:02:04;;;;;;;22.98;10.90;;;7.60;99.90;;;;;;4983024;28;21070;-55
2021/11/19 10:04:58;;;;;;;24.52;11.82;;;7.80;99.90;;;;;;4984973;28;20446;-55
2021/11/19 10:07:53;;;;;;;21.60;10.93;;;7.90;99.90;;;;;;5087343;28;20397;-55
2021/11/19 10:10:51;;;;;;;24.35;11.43;;;8.00;99.90;;;;;;5090051;28;20402;-55
2021/11/19 10:13:37;;;;;;;24.17;11.38;;;7.90;99.90;;;;;;5087588;28;20410;-55
2021/11/19 10:16:08;;;;;;;24.88;10.95;;;7.80;99.90;;;;;;5070842;28;20388;-55
2021/11/19 10:18:56;;;;;;;24.90;11.10;;;7.70;99.90;;;;;;5069727;28;20470;-54
2021/11/19 10:21:30;;;;;;;28.10;12.30;;;7.50;99.90;;;;;;5070343;28;20388;-55
2021/11/19 10:24:03;;;;;;;21.58;10.85;;;5.90;99.90;;;;;;5070510;28;20400;-55
2021/11/19 10:26:36;;;;;;;24.58;11.20;;;7.40;99.90;;;;;;5070138;28;20418;-55
2021/11/19 10:29:39;;;;;;;27.60;11.07;;;7.60;99.90;;;;;;5070084;28;20376;-54
2021/11/19 10:32:08;;;;;;;23.80;11.70;;;7.90;99.90;;;;;;5066889;28;20423;-55
2021/11/19 10:34:52;;;;;;;25.87;14.83;;;7.80;99.90;;;;;;5077809;28;20390;-55
2021/11/19 10:38:05;;;;;;;26.20;11.77;;;7.60;99.90;;;;;;5071388;28;20372;-55
2021/11/19 10:40:49;;;;;;;21.00;10.80;;;7.40;99.90;;;;;;5022052;28;21059;-55
2021/11/19 10:43:52;;;;;;;21.88;11.43;;;7.50;99.90;;;;;;5085175;28;20409;-55
2021/11/19 10:46:45;;;;;;;23.98;12.13;;;7.70;99.90;;;;;;5081988;28;20411;-55
2021/11/19 10:49:38;;;;;;;23.33;11.43;;;7.70;99.90;;;;;;5077321;28;20408;-55
2021/11/19 10:52:27;;;;;;;23.65;11.55;;;7.90;99.90;;;;;;5065267;28;20445;-55
2021/11/19 10:55:38;;;;;;;22.48;10.98;;;8.00;99.90;;;;;;5074724;28;20505;-55
2021/11/19 10:58:04;;;;;;;23.70;11.95;;;7.70;99.90;;;;;;5078158;28;20443;-54
2021/11/19 11:00:59;;;;;;;26.97;11.70;;;7.80;99.90;;;;;;5075740;28;20406;-54
2021/11/19 11:03:32;;;;;;;25.75;12.80;;;7.90;99.90;;;;;;5081320;28;21136;-54
2021/11/19 11:06:06;;;;;;;28.90;13.80;;;7.70;99.90;;;;;;5080491;28;20426;-54
2021/11/19 11:08:41;;;;;;;27.40;13.02;;;7.70;99.90;;;;;;5078638;28;21068;-54
2021/11/19 11:11:11;;;;;;;26.63;11.63;;;7.80;99.90;;;;;;5079985;28;20415;-55
2021/11/19 11:13:39;;;;;;;23.80;12.80;;;7.90;99.90;;;;;;5081688;28;20412;-55
2021/11/19 11:16:31;;;;;;;27.27;12.05;;;8.10;99.90;;;;;;5078099;28;20395;-55
2021/11/19 11:19:07;;;;;;;25.60;12.50;;;8.20;99.90;;;;;;5081394;28;20515;-55
2021/11/19 11:21:50;;;;;;;25.55;11.95;;;8.30;99.90;;;;;;5077719;28;20409;-55
2021/11/19 11:24:32;;;;;;;22.55;11.25;;;8.30;99.90;;;;;;5076147;28;20414;-55
2021/11/19 11:27:35;;;;;;;26.00;12.50;;;8.10;99.90;;;;;;5087072;28;20871;-55
2021/11/19 11:30:01;;;;;;;21.45;11.80;;;8.20;99.90;;;;;;5080050;28;20516;-55
2021/11/19 11:32:54;;;;;;;23.55;12.32;;;8.20;99.90;;;;;;5079766;28;20496;-55
2021/11/19 11:35:39;;;;;;;26.98;11.80;;;8.10;99.90;;;;;;5078851;28;20406;-55
2021/11/19 11:38:08;;;;;;;26.30;12.20;;;8.10;99.90;;;;;;5081958;28;20394;-55
2021/11/19 11:40:35;;;;;;;25.27;12.65;;;8.10;99.90;;;;;;5075357;28;20411;-55
2021/11/19 11:43:27;;;;;;;25.05;12.15;;;7.90;99.90;;;;;;5073207;28;20405;-55
2021/11/19 11:45:56;;;;;;;30.23;13.20;;;8.00;99.90;;;;;;5079773;28;20459;-55
2021/11/19 11:48:25;;;;;;;28.05;13.27;;;8.10;99.90;;;;;;5066346;28;20488;-55
2021/11/19 11:50:58;;;;;;;25.30;12.00;;;8.40;99.90;;;;;;5078168;28;20406;-55
2021/11/19 11:53:44;;;;;;;24.27;12.60;;;8.40;99.90;;;;;;5081462;28;20412;-55
2021/11/19 11:56:12;;;;;;;24.58;11.90;;;8.30;99.90;;;;;;5027523;28;20411;-55
2021/11/19 11:58:51;;;;;;;24.35;11.23;;;8.30;99.90;;;;;;5078320;28;20397;-55
2021/11/19 12:01:26;;;;;;;27.58;12.20;;;8.30;99.90;;;;;;5068395;28;20409;-56
2021/11/19 12:04:07;;;;;;;28.10;12.80;;;8.30;99.90;;;;;;5086706;28;20466;-55
2021/11/19 12:07:11;;;;;;;25.47;13.13;;;8.30;99.90;;;;;;5086022;28;20394;-55
2021/11/19 12:09:56;;;;;;;22.13;11.85;;;8.20;99.90;;;;;;5055092;28;20533;-55
2021/11/19 12:12:36;;;;;;;25.30;11.93;;;8.20;99.90;;;;;;5071912;28;20421;-55
2021/11/19 12:15:07;;;;;;;27.52;13.23;;;8.20;99.90;;;;;;5074418;28;20769;-55
2021/11/19 12:17:33;;;;;;;26.77;12.40;;;8.20;99.90;;;;;;5081135;28;20899;-55
2021/11/19 12:20:09;;;;;;;24.50;12.05;;;8.10;99.90;;;;;;5073471;28;20392;-54
2021/11/19 12:22:58;;;;;;;24.08;11.95;;;8.00;99.90;;;;;;5080813;28;20444;-54
2021/11/19 12:25:38;;;;;;;27.45;13.32;;;8.20;99.90;;;;;;5079890;28;20414;-55
2021/11/19 12:28:36;;;;;;;22.90;11.80;;;8.40;99.90;;;;;;5074971;28;20408;-55
2021/11/19 12:31:14;;;;;;;21.92;11.40;;;8.50;99.90;;;;;;5075516;28;20750;-55
2021/11/19 12:33:43;;;;;;;23.27;11.97;;;8.50;99.90;;;;;;5075950;28;20429;-55
2021/11/19 12:36:16;;;;;;;22.02;11.98;;;8.60;99.90;;;;;;5082642;28;20394;-55
2021/11/19 12:38:45;;;;;;;22.48;11.32;;;8.50;99.90;;;;;;5078619;28;20406;-55
2021/11/19 12:41:19;;;;;;;26.48;12.43;;;8.30;99.90;;;;;;5078723;28;20408;-55
2021/11/19 12:44:29;;;;;;;25.90;12.13;;;8.30;99.90;;;;;;5079157;28;20414;-56
2021/11/19 12:47:01;;;;;;;27.52;11.85;;;8.30;99.90;;;;;;5076783;28;20415;-56
2021/11/19 12:49:50;;;;;;;32.00;12.43;;;8.40;99.90;;;;;;5075728;28;20404;-55
2021/11/19 12:52:38;;;;;;;25.67;12.00;;;8.40;99.90;;;;;;5079829;28;20401;-55
2021/11/19 12:55:58;;;;;;;25.20;11.70;;;8.30;99.90;;;;;;5081517;28;20405;-56
2021/11/19 12:58:31;;;;;;;28.08;12.57;;;8.30;99.90;;;;;;5077860;28;20401;-56
2021/11/19 13:01:22;;;;;;;28.45;11.80;;;8.40;99.90;;;;;;5084156;28;20380;-56
2021/11/19 13:03:59;;;;;;;27.27;11.90;;;8.50;99.90;;;;;;5079031;28;20452;-56